WUK25K EGGW-EHAM
Flight info
| Callsign | WUK25K |
|---|---|
| Flight time | 0h 42m |
| Altitude | 23000 |
| Route | MATCH Q295 BRAIN M197 REDFA |
| Aircraft | A321/M-SDE3FGHIRWY/LB1 |
Departure
| Time | 2026-04-30 18:49 |
|---|---|
| Airport | London Luton Airport (EGGW) |
Arrival
| Time | 2026-04-30 19:32 |
|---|---|
| Airport | Amsterdam Airport Schiphol (EHAM) |
| Time | Latitude | Longitude | Altitude | Speed | Heading |
|---|---|---|---|---|---|
| 2026-04-30 18:14 | 51.87945 | -0.37382 | 509 ft | 0 kts | 162° |
| 2026-04-30 18:35 | 51.87950 | -0.37385 | 508 ft | 2 kts | 160° |
| 2026-04-30 18:36 | 51.87982 | -0.37402 | 508 ft | 2 kts | 162° |
| 2026-04-30 18:36 | 51.87998 | -0.37410 | 508 ft | 2 kts | 163° |
| 2026-04-30 18:36 | 51.88021 | -0.37421 | 508 ft | 0 kts | 162° |
| 2026-04-30 18:40 | 51.88017 | -0.37418 | 508 ft | 3 kts | 158° |
| 2026-04-30 18:40 | 51.88010 | -0.37379 | 508 ft | 2 kts | 82° |
| 2026-04-30 18:40 | 51.88014 | -0.37349 | 508 ft | 4 kts | 75° |
| 2026-04-30 18:40 | 51.88015 | -0.37347 | 508 ft | 0 kts | 73° |
| 2026-04-30 18:41 | 51.88015 | -0.37346 | 508 ft | 0 kts | 73° |
| 2026-04-30 18:42 | 51.88017 | -0.37337 | 508 ft | 0 kts | 73° |
| 2026-04-30 18:42 | 51.88028 | -0.37279 | 508 ft | 8 kts | 72° |
| 2026-04-30 18:42 | 51.88038 | -0.37176 | 508 ft | 11 kts | 106° |
| 2026-04-30 18:45 | 51.87356 | -0.38077 | 523 ft | 0 kts | 204° |
| 2026-04-30 18:45 | 51.87346 | -0.38084 | 523 ft | 5 kts | 204° |
| 2026-04-30 18:46 | 51.87291 | -0.38108 | 523 ft | 11 kts | 185° |
| 2026-04-30 18:46 | 51.87229 | -0.38198 | 523 ft | 15 kts | 242° |
| 2026-04-30 18:46 | 51.87192 | -0.38325 | 520 ft | 2 kts | 306° |
| 2026-04-30 18:46 | 51.87205 | -0.38312 | 521 ft | 3 kts | 44° |
| 2026-04-30 18:47 | 51.87216 | -0.38266 | 522 ft | 4 kts | 72° |
| 2026-04-30 18:47 | 51.87216 | -0.38265 | 522 ft | 0 kts | 72° |
| 2026-04-30 18:48 | 51.87216 | -0.38264 | 522 ft | 1 kts | 72° |
| 2026-04-30 18:48 | 51.87220 | -0.38245 | 522 ft | 5 kts | 73° |
| 2026-04-30 18:48 | 51.87286 | -0.37859 | 525 ft | 77 kts | 75° |
| 2026-04-30 18:49 | 51.87502 | -0.36637 | 528 ft | 145 kts | 73° |
| 2026-04-30 18:49 | 51.87762 | -0.34924 | 1014 ft | 155 kts | 79° |
| 2026-04-30 18:49 | 51.87983 | -0.33235 | 1819 ft | 152 kts | 77° |
| 2026-04-30 18:49 | 51.88277 | -0.31598 | 2499 ft | 154 kts | 72° |
| 2026-04-30 18:50 | 51.88630 | -0.29899 | 3005 ft | 163 kts | 70° |
| 2026-04-30 18:50 | 51.89029 | -0.28094 | 3448 ft | 180 kts | 71° |
| 2026-04-30 18:50 | 51.89372 | -0.26025 | 3777 ft | 202 kts | 84° |
| 2026-04-30 18:50 | 51.89261 | -0.23638 | 4056 ft | 225 kts | 98° |
| 2026-04-30 18:51 | 51.89033 | -0.20992 | 4393 ft | 250 kts | 98° |
| 2026-04-30 18:51 | 51.88777 | -0.18101 | 4957 ft | 267 kts | 98° |
| 2026-04-30 18:51 | 51.88508 | -0.15096 | 5785 ft | 272 kts | 98° |
| 2026-04-30 18:51 | 51.88234 | -0.12033 | 6668 ft | 276 kts | 98° |
| 2026-04-30 18:52 | 51.87958 | -0.08948 | 7531 ft | 280 kts | 98° |
| 2026-04-30 18:52 | 51.87678 | -0.05814 | 8383 ft | 283 kts | 98° |
| 2026-04-30 18:52 | 51.87392 | -0.02638 | 9216 ft | 287 kts | 98° |
| 2026-04-30 18:52 | 51.87102 | 0.00578 | 10042 ft | 291 kts | 98° |
| 2026-04-30 18:53 | 51.86803 | 0.03887 | 10557 ft | 308 kts | 98° |
| 2026-04-30 18:53 | 51.86481 | 0.07437 | 10826 ft | 331 kts | 98° |
| 2026-04-30 18:53 | 51.86140 | 0.11200 | 11367 ft | 342 kts | 98° |
| 2026-04-30 18:53 | 51.85790 | 0.15031 | 12098 ft | 347 kts | 98° |
| 2026-04-30 18:54 | 51.85436 | 0.18896 | 12847 ft | 350 kts | 98° |
| 2026-04-30 18:54 | 51.85080 | 0.22778 | 13563 ft | 354 kts | 98° |
| 2026-04-30 18:54 | 51.84714 | 0.26780 | 14283 ft | 358 kts | 98° |
| 2026-04-30 18:54 | 51.84346 | 0.30796 | 14995 ft | 362 kts | 98° |
| 2026-04-30 18:55 | 51.83970 | 0.34849 | 15691 ft | 366 kts | 98° |
| 2026-04-30 18:55 | 51.83206 | 0.43056 | 17049 ft | 373 kts | 98° |
| 2026-04-30 18:55 | 51.82821 | 0.47171 | 17698 ft | 377 kts | 98° |
| 2026-04-30 18:56 | 51.82013 | 0.55625 | 18966 ft | 384 kts | 99° |
| 2026-04-30 18:56 | 51.81605 | 0.59901 | 19583 ft | 388 kts | 98° |
| 2026-04-30 18:56 | 51.81396 | 0.64261 | 20181 ft | 391 kts | 89° |
| 2026-04-30 18:57 | 51.82315 | 0.72988 | 21360 ft | 398 kts | 76° |
| 2026-04-30 18:57 | 51.82991 | 0.77339 | 21936 ft | 402 kts | 76° |
| 2026-04-30 18:57 | 51.83673 | 0.81748 | 22498 ft | 405 kts | 76° |
| 2026-04-30 18:58 | 51.85201 | 0.90582 | 23550 ft | 411 kts | 73° |
| 2026-04-30 18:58 | 51.86034 | 0.95031 | 24046 ft | 415 kts | 73° |
| 2026-04-30 18:58 | 51.86877 | 0.99487 | 24529 ft | 418 kts | 73° |
| 2026-04-30 18:59 | 51.88563 | 1.08555 | 25454 ft | 424 kts | 73° |
| 2026-04-30 19:00 | 51.91065 | 1.22449 | 26759 ft | 432 kts | 74° |
| 2026-04-30 19:00 | 51.91896 | 1.27141 | 26969 ft | 434 kts | 74° |
| 2026-04-30 19:00 | 51.93529 | 1.36336 | 27009 ft | 420 kts | 74° |
| 2026-04-30 19:01 | 51.95139 | 1.45413 | 27009 ft | 418 kts | 74° |
| 2026-04-30 19:01 | 51.95928 | 1.49881 | 27010 ft | 418 kts | 74° |
| 2026-04-30 19:02 | 51.97525 | 1.58950 | 27010 ft | 418 kts | 74° |
| 2026-04-30 19:02 | 51.99113 | 1.68018 | 27009 ft | 418 kts | 74° |
| 2026-04-30 19:03 | 52.00614 | 1.77201 | 27008 ft | 418 kts | 76° |
| 2026-04-30 19:03 | 52.02007 | 1.86358 | 27006 ft | 418 kts | 76° |
| 2026-04-30 19:04 | 52.03383 | 1.95465 | 27007 ft | 418 kts | 76° |
| 2026-04-30 19:04 | 52.04779 | 2.04622 | 27007 ft | 418 kts | 76° |
| 2026-04-30 19:05 | 52.06181 | 2.13755 | 26628 ft | 414 kts | 76° |
| 2026-04-30 19:05 | 52.07563 | 2.22758 | 25651 ft | 407 kts | 76° |
| 2026-04-30 19:06 | 52.08906 | 2.31600 | 24737 ft | 400 kts | 76° |
| 2026-04-30 19:06 | 52.09564 | 2.35988 | 24287 ft | 397 kts | 76° |
| 2026-04-30 19:06 | 52.10849 | 2.44651 | 23415 ft | 391 kts | 76° |
| 2026-04-30 19:07 | 52.12846 | 2.52763 | 22972 ft | 386 kts | 65° |
| 2026-04-30 19:07 | 52.13969 | 2.56734 | 22713 ft | 386 kts | 65° |
| 2026-04-30 19:08 | 52.16181 | 2.64658 | 22209 ft | 383 kts | 65° |
| 2026-04-30 19:08 | 52.18387 | 2.72524 | 21714 ft | 380 kts | 65° |
| 2026-04-30 19:08 | 52.19488 | 2.76425 | 21462 ft | 378 kts | 65° |
| 2026-04-30 19:09 | 52.21682 | 2.84192 | 20962 ft | 376 kts | 65° |
| 2026-04-30 19:09 | 52.22770 | 2.88052 | 20711 ft | 374 kts | 65° |
| 2026-04-30 19:09 | 52.23851 | 2.91904 | 20461 ft | 373 kts | 65° |
| 2026-04-30 19:10 | 52.25979 | 2.99520 | 19965 ft | 370 kts | 65° |
| 2026-04-30 19:10 | 52.28116 | 3.07187 | 19460 ft | 367 kts | 65° |
| 2026-04-30 19:11 | 52.29154 | 3.10926 | 19212 ft | 366 kts | 65° |
| 2026-04-30 19:11 | 52.31244 | 3.18455 | 18701 ft | 363 kts | 65° |
| 2026-04-30 19:11 | 52.32283 | 3.22210 | 18470 ft | 361 kts | 65° |
| 2026-04-30 19:12 | 52.33306 | 3.25923 | 18135 ft | 356 kts | 65° |
| 2026-04-30 19:12 | 52.34317 | 3.29598 | 17681 ft | 353 kts | 65° |
| 2026-04-30 19:12 | 52.35322 | 3.33249 | 17211 ft | 350 kts | 65° |
| 2026-04-30 19:13 | 52.37304 | 3.40442 | 16307 ft | 344 kts | 65° |
| 2026-04-30 19:13 | 52.39249 | 3.47541 | 15398 ft | 339 kts | 66° |
| 2026-04-30 19:13 | 52.40210 | 3.51059 | 14953 ft | 337 kts | 66° |
| 2026-04-30 19:14 | 52.41160 | 3.54539 | 14493 ft | 334 kts | 66° |
| 2026-04-30 19:14 | 52.42106 | 3.58011 | 14055 ft | 332 kts | 66° |
| 2026-04-30 19:14 | 52.43041 | 3.61451 | 13622 ft | 330 kts | 66° |
| 2026-04-30 19:14 | 52.43970 | 3.64876 | 13183 ft | 327 kts | 66° |
| 2026-04-30 19:15 | 52.44891 | 3.68269 | 12741 ft | 325 kts | 66° |
| 2026-04-30 19:15 | 52.46404 | 3.73867 | 12022 ft | 321 kts | 66° |
| 2026-04-30 19:15 | 52.47307 | 3.77210 | 11598 ft | 319 kts | 66° |
| 2026-04-30 19:16 | 52.48204 | 3.80528 | 11175 ft | 317 kts | 66° |
| 2026-04-30 19:16 | 52.49094 | 3.83828 | 10754 ft | 315 kts | 66° |
| 2026-04-30 19:16 | 52.50836 | 3.90316 | 10198 ft | 301 kts | 66° |
| 2026-04-30 19:17 | 52.51636 | 3.93438 | 9954 ft | 294 kts | 72° |
| 2026-04-30 19:17 | 52.51720 | 3.99965 | 9710 ft | 290 kts | 106° |
| 2026-04-30 19:17 | 52.51014 | 4.03004 | 9536 ft | 289 kts | 115° |
| 2026-04-30 19:18 | 52.48799 | 4.07049 | 9236 ft | 287 kts | 142° |
| 2026-04-30 19:18 | 52.46722 | 4.09723 | 9008 ft | 286 kts | 142° |
| 2026-04-30 19:18 | 52.45153 | 4.11719 | 8823 ft | 285 kts | 142° |
| 2026-04-30 19:19 | 52.43587 | 4.13707 | 8637 ft | 284 kts | 142° |
| 2026-04-30 19:19 | 52.42028 | 4.15684 | 8281 ft | 282 kts | 142° |
| 2026-04-30 19:19 | 52.38937 | 4.19597 | 7569 ft | 279 kts | 142° |
| 2026-04-30 19:20 | 52.37402 | 4.21539 | 7218 ft | 278 kts | 142° |
| 2026-04-30 19:20 | 52.35878 | 4.23465 | 6870 ft | 277 kts | 142° |
| 2026-04-30 19:20 | 52.32789 | 4.27045 | 6271 ft | 268 kts | 158° |
| 2026-04-30 19:21 | 52.31068 | 4.28066 | 6136 ft | 258 kts | 162° |
| 2026-04-30 19:21 | 52.27771 | 4.29811 | 5849 ft | 240 kts | 162° |
| 2026-04-30 19:22 | 52.24715 | 4.31416 | 4856 ft | 228 kts | 162° |
| 2026-04-30 19:22 | 52.20228 | 4.33771 | 2884 ft | 223 kts | 162° |
| 2026-04-30 19:23 | 52.16776 | 4.38085 | 2686 ft | 211 kts | 100° |
| 2026-04-30 19:24 | 52.16891 | 4.42514 | 2703 ft | 192 kts | 69° |
| 2026-04-30 19:24 | 52.17555 | 4.44387 | 2694 ft | 190 kts | 57° |
| 2026-04-30 19:24 | 52.18967 | 4.48013 | 2691 ft | 189 kts | 57° |
| 2026-04-30 19:25 | 52.21128 | 4.53320 | 2424 ft | 180 kts | 42° |
| 2026-04-30 19:26 | 52.23376 | 4.53191 | 1699 ft | 182 kts | 314° |
| 2026-04-30 19:26 | 52.23775 | 4.49325 | 1690 ft | 183 kts | 246° |
| 2026-04-30 19:26 | 52.22886 | 4.47881 | 1699 ft | 185 kts | 206° |
| 2026-04-30 19:27 | 52.20606 | 4.48981 | 1695 ft | 187 kts | 124° |
| 2026-04-30 19:27 | 52.20862 | 4.52922 | 1695 ft | 187 kts | 56° |
| 2026-04-30 19:28 | 52.21563 | 4.54709 | 1692 ft | 186 kts | 57° |
| 2026-04-30 19:28 | 52.22950 | 4.58279 | 1696 ft | 186 kts | 57° |
| 2026-04-30 19:29 | 52.24334 | 4.61856 | 1621 ft | 187 kts | 57° |
| 2026-04-30 19:29 | 52.25024 | 4.63643 | 1420 ft | 179 kts | 57° |
| 2026-04-30 19:30 | 52.26716 | 4.68046 | 823 ft | 142 kts | 58° |
| 2026-04-30 19:30 | 52.27767 | 4.70747 | 450 ft | 140 kts | 57° |
| 2026-04-30 19:31 | 52.28789 | 4.73421 | 105 ft | 139 kts | 57° |
| 2026-04-30 19:31 | 52.29297 | 4.74743 | 2 ft | 128 kts | 58° |
| 2026-04-30 19:31 | 52.29993 | 4.76543 | -2 ft | 69 kts | 56° |
| 2026-04-30 19:32 | 52.30208 | 4.77097 | -3 ft | 38 kts | 56° |
| 2026-04-30 19:32 | 52.30331 | 4.77328 | -3 ft | 15 kts | 23° |
| 2026-04-30 19:32 | 52.30426 | 4.77407 | -2 ft | 15 kts | 25° |